createdAt,value
2022-09-04T00:02:35.820Z,72.33
2022-09-04T00:05:31.725Z,73.00
2022-09-04T00:08:36.111Z,72.81
2022-09-04T00:11:14.687Z,72.76
2022-09-04T00:13:46.751Z,72.41
2022-09-04T00:16:28.625Z,72.17
2022-09-04T00:19:03.397Z,72.56
2022-09-04T00:21:36.908Z,72.50
2022-09-04T00:24:08.941Z,72.19
2022-09-04T00:26:56.974Z,72.13
2022-09-04T00:29:58.840Z,72.06
2022-09-04T00:32:30.211Z,72.14
2022-09-04T00:35:31.596Z,72.22
2022-09-04T00:38:32.783Z,73.45
2022-09-04T00:41:44.135Z,73.58
2022-09-04T00:44:31.028Z,73.36
2022-09-04T00:47:28.142Z,73.57
2022-09-04T00:50:42.553Z,73.18
2022-09-04T00:53:25.171Z,73.87
2022-09-04T00:56:18.670Z,74.35
2022-09-04T00:59:01.751Z,73.91
2022-09-04T01:01:29.863Z,73.55
2022-09-04T01:04:17.522Z,73.70
2022-09-04T01:07:02.652Z,73.79
2022-09-04T01:10:08.789Z,73.97
2022-09-04T01:12:57.981Z,73.83
2022-09-04T01:15:34.780Z,74.07
2022-09-04T01:18:29.903Z,74.28
2022-09-04T01:21:15.465Z,74.23
2022-09-04T01:24:08.131Z,74.42
2022-09-04T01:26:37.624Z,74.70
2022-09-04T01:29:21.278Z,74.99
2022-09-04T01:31:55.778Z,75.37
2022-09-04T01:34:36.400Z,75.31
2022-09-04T01:37:28.713Z,74.94
2022-09-04T01:40:35.087Z,75.37
2022-09-04T01:43:23.766Z,75.48
2022-09-04T01:46:02.463Z,75.45
2022-09-04T01:48:52.508Z,75.97
2022-09-04T01:51:34.561Z,75.26
2022-09-04T01:54:31.612Z,75.29
2022-09-04T01:57:10.793Z,75.61
2022-09-04T01:59:43.754Z,75.16
2022-09-04T02:02:20.992Z,75.01
2022-09-04T02:04:58.696Z,75.91
2022-09-04T02:07:36.403Z,75.34
2022-09-04T02:10:11.139Z,75.22
2022-09-04T02:13:02.962Z,74.90
2022-09-04T02:15:47.343Z,74.83
2022-09-04T02:18:31.751Z,74.77
2022-09-04T02:21:24.510Z,75.02
2022-09-04T02:24:17.221Z,75.30
2022-09-04T02:27:00.662Z,74.94
2022-09-04T02:29:36.406Z,74.83
2022-09-04T02:32:25.880Z,75.38
2022-09-04T02:34:57.782Z,76.26
2022-09-04T02:37:55.499Z,76.14
2022-09-04T02:40:33.248Z,76.53
2022-09-04T02:42:59.960Z,76.80
2022-09-04T02:46:00.286Z,77.13
2022-09-04T02:48:57.857Z,77.76
2022-09-04T02:51:38.909Z,77.83
2022-09-04T02:54:08.395Z,78.21
2022-09-04T02:56:44.097Z,78.54
2022-09-04T02:59:44.498Z,79.87
2022-09-04T03:02:34.644Z,79.40
2022-09-04T03:05:08.368Z,79.57
2022-09-04T03:07:41.078Z,79.98
2022-09-04T03:10:07.786Z,80.25
2022-09-04T03:12:48.006Z,80.51
2022-09-04T03:15:36.115Z,81.22
2022-09-04T03:18:17.474Z,81.86
2022-09-04T03:21:01.902Z,81.82
2022-09-04T03:23:52.700Z,81.79
2022-09-04T03:26:27.662Z,81.97
2022-09-04T03:29:24.872Z,82.34
2022-09-04T03:32:16.695Z,82.65
2022-09-04T03:35:02.570Z,83.29
2022-09-04T03:38:00.109Z,83.35
2022-09-04T03:40:35.928Z,83.55
2022-09-04T03:43:08.486Z,83.63
2022-09-04T03:46:08.908Z,84.02
2022-09-04T03:48:54.472Z,84.22
2022-09-04T03:51:33.430Z,84.08
2022-09-04T03:54:08.828Z,84.51
2022-09-04T03:57:08.080Z,84.52
2022-09-04T03:59:44.907Z,84.51
2022-09-04T04:02:20.727Z,85.02
2022-09-04T04:05:00.487Z,84.83
2022-09-04T04:07:27.265Z,85.30
2022-09-04T04:09:59.987Z,85.48
2022-09-04T04:12:44.969Z,85.66
2022-09-04T04:15:33.489Z,85.54
2022-09-04T04:18:47.970Z,85.85
2022-09-04T04:21:55.068Z,86.41
2022-09-04T04:24:54.399Z,86.16
2022-09-04T04:27:38.541Z,87.04
2022-09-04T04:30:12.839Z,87.34
2022-09-04T04:32:53.215Z,87.28
2022-09-04T04:35:38.577Z,87.30
2022-09-04T04:38:20.647Z,87.67
2022-09-04T04:40:53.310Z,87.66
2022-09-04T04:43:31.977Z,87.62
2022-09-04T04:46:04.979Z,88.16
2022-09-04T04:49:11.726Z,88.40
2022-09-04T04:51:40.923Z,88.50
2022-09-04T04:54:25.973Z,88.57
2022-09-04T04:57:21.084Z,88.74
2022-09-04T05:00:25.231Z,89.14
2022-09-04T05:03:32.497Z,88.64
2022-09-04T05:05:59.261Z,89.37
2022-09-04T05:08:42.004Z,89.50
2022-09-04T05:12:03.847Z,89.73
2022-09-04T05:14:42.561Z,89.27
2022-09-04T05:17:27.719Z,89.37
2022-09-04T05:20:27.310Z,89.69
2022-09-04T05:23:09.398Z,90.07
2022-09-04T05:25:36.169Z,90.43
2022-09-04T05:28:23.098Z,89.76
2022-09-04T05:30:59.375Z,89.76
2022-09-04T05:34:00.417Z,89.60
2022-09-04T05:36:37.668Z,89.74
2022-09-04T05:39:10.526Z,89.59
2022-09-04T05:42:07.203Z,89.70
2022-09-04T05:44:58.819Z,89.72
2022-09-04T05:47:35.331Z,89.59
2022-09-04T05:50:21.313Z,89.40
2022-09-04T05:53:39.182Z,89.26
2022-09-04T05:56:33.055Z,89.24
2022-09-04T05:59:14.812Z,89.32
2022-09-04T06:02:02.023Z,89.28
2022-09-04T06:04:48.471Z,88.96
2022-09-04T06:07:27.752Z,88.68
2022-09-04T06:10:19.208Z,88.40
2022-09-04T06:12:51.801Z,88.40
2022-09-04T06:15:48.467Z,88.26
2022-09-04T06:19:03.465Z,88.13
2022-09-04T06:21:55.137Z,87.90
2022-09-04T06:24:54.854Z,87.98
2022-09-04T06:27:28.897Z,87.91
2022-09-04T06:30:11.169Z,87.77
2022-09-04T06:32:44.089Z,87.66
2022-09-04T06:35:43.993Z,87.42
2022-09-04T06:38:36.779Z,87.14
2022-09-04T06:41:08.724Z,86.68
2022-09-04T06:44:05.434Z,86.16
2022-09-04T06:47:10.863Z,86.13
2022-09-04T06:50:02.214Z,85.97
2022-09-04T06:52:40.894Z,85.98
2022-09-04T06:55:22.298Z,86.10
2022-09-04T06:58:18.664Z,85.17
2022-09-04T07:00:53.599Z,84.96
2022-09-04T07:03:46.582Z,84.97
2022-09-04T07:06:31.316Z,84.70
2022-09-04T07:09:30.942Z,84.66
2022-09-04T07:12:19.562Z,83.93
2022-09-04T07:14:55.492Z,84.45
2022-09-04T07:17:39.727Z,83.82
2022-09-04T07:20:28.130Z,84.07
2022-09-04T07:23:10.402Z,83.38
2022-09-04T07:26:03.670Z,83.65
2022-09-04T07:28:56.485Z,82.76
2022-09-04T07:31:35.070Z,83.04
2022-09-04T07:34:09.322Z,83.21
2022-09-04T07:37:06.087Z,82.82
2022-09-04T07:39:48.449Z,82.03
2022-09-04T07:42:31.257Z,81.52
2022-09-04T07:45:22.653Z,81.46
2022-09-04T07:48:35.027Z,80.96
2022-09-04T07:51:10.815Z,80.92
2022-09-04T07:54:08.135Z,80.73
2022-09-04T07:57:16.537Z,80.27
2022-09-04T07:59:55.501Z,79.41
2022-09-04T08:02:37.892Z,79.12
2022-09-04T08:05:07.413Z,79.17
2022-09-04T08:07:34.209Z,79.55
2022-09-04T08:10:22.344Z,79.73
2022-09-04T08:13:20.935Z,78.68
2022-09-04T08:16:05.921Z,78.73
2022-09-04T08:18:53.314Z,78.21
2022-09-04T08:21:25.930Z,78.07
2022-09-04T08:24:08.117Z,78.65
2022-09-04T08:27:03.300Z,78.67
2022-09-04T08:29:40.566Z,78.40
2022-09-04T08:32:38.190Z,77.98
2022-09-04T08:35:31.618Z,77.82
2022-09-04T08:38:09.353Z,77.36
2022-09-04T08:41:07.094Z,77.48
2022-09-04T08:43:36.706Z,76.97
2022-09-04T08:46:28.789Z,77.30
2022-09-04T08:49:33.152Z,77.11
2022-09-04T08:52:24.596Z,76.21
2022-09-04T08:55:02.003Z,76.02
2022-09-04T08:57:47.462Z,76.09
2022-09-04T09:00:16.922Z,75.27
2022-09-04T09:03:35.371Z,74.74
2022-09-04T09:06:09.486Z,74.87
2022-09-04T09:08:57.598Z,74.51
2022-09-04T09:11:43.647Z,74.80
2022-09-04T09:14:38.822Z,74.69
2022-09-04T09:17:27.997Z,75.13
2022-09-04T09:20:22.478Z,75.37
2022-09-04T09:23:34.275Z,74.71
2022-09-04T09:26:06.961Z,74.58
2022-09-04T09:28:46.214Z,74.45
2022-09-04T09:31:50.677Z,74.43
2022-09-04T09:35:01.962Z,73.96
2022-09-04T09:38:06.341Z,73.82
2022-09-04T09:40:48.340Z,74.01
2022-09-04T09:43:58.690Z,73.43
2022-09-04T09:46:58.510Z,72.54
2022-09-04T09:49:50.031Z,71.91
2022-09-04T09:52:47.432Z,72.07
2022-09-04T09:55:48.533Z,71.99
2022-09-04T09:58:44.675Z,71.80
2022-09-04T10:01:36.614Z,73.15
2022-09-04T10:04:14.947Z,71.93
2022-09-04T10:06:56.478Z,71.25
2022-09-04T10:09:42.373Z,72.06
2022-09-04T10:12:36.701Z,72.38
2022-09-04T10:15:22.276Z,72.71
2022-09-04T10:18:26.712Z,72.17
2022-09-04T10:21:13.254Z,72.82
2022-09-04T10:23:59.010Z,72.41
2022-09-04T10:26:52.411Z,72.11
2022-09-04T10:29:39.662Z,71.31
2022-09-04T10:32:21.279Z,70.40
2022-09-04T10:35:14.950Z,69.13
2022-09-04T10:38:03.346Z,69.34
2022-09-04T10:40:46.922Z,68.87
2022-09-04T10:43:17.487Z,68.84
2022-09-04T10:45:57.455Z,68.87
2022-09-04T10:48:45.152Z,68.03
2022-09-04T10:51:21.509Z,67.75
2022-09-04T10:53:55.014Z,68.37
2022-09-04T10:56:36.542Z,68.16
2022-09-04T10:59:38.400Z,67.59
2022-09-04T11:02:11.021Z,68.24
2022-09-04T11:05:15.515Z,67.82
2022-09-04T11:08:09.431Z,68.23
2022-09-04T11:11:14.346Z,67.85
2022-09-04T11:14:15.170Z,67.43
2022-09-04T11:17:10.285Z,67.77
2022-09-04T11:20:04.118Z,68.46
2022-09-04T11:22:38.864Z,68.35
2022-09-04T11:25:44.762Z,68.16
2022-09-04T11:28:47.895Z,67.54
2022-09-04T11:31:40.593Z,67.50
2022-09-04T11:34:49.436Z,67.34
2022-09-04T11:37:57.882Z,67.22
2022-09-04T11:40:58.857Z,67.79
2022-09-04T11:43:45.381Z,67.31
2022-09-04T11:46:27.443Z,67.18
2022-09-04T11:49:26.394Z,67.14
2022-09-04T11:52:09.706Z,67.68
2022-09-04T11:54:54.464Z,68.00
2022-09-04T11:57:56.989Z,67.17
2022-09-04T12:00:24.767Z,67.07
2022-09-04T12:03:14.329Z,67.02
2022-09-04T12:05:53.188Z,66.91
2022-09-04T12:08:38.771Z,67.84
2022-09-04T12:11:32.926Z,67.96
2022-09-04T12:14:09.726Z,67.91
2022-09-04T12:16:55.334Z,67.69
2022-09-04T12:19:42.591Z,68.04
2022-09-04T12:22:37.548Z,67.76
2022-09-04T12:25:45.400Z,66.67
2022-09-04T12:28:35.337Z,67.05
2022-09-04T12:31:51.295Z,66.39
2022-09-04T12:34:43.132Z,66.64
2022-09-04T12:37:16.546Z,66.48
2022-09-04T12:39:57.346Z,66.37
2022-09-04T12:43:18.183Z,66.74
2022-09-04T12:46:10.983Z,66.10
2022-09-04T12:49:04.252Z,66.61
2022-09-04T12:51:54.308Z,66.63
2022-09-04T12:54:39.107Z,67.01
2022-09-04T12:57:27.132Z,66.91
2022-09-04T13:00:07.086Z,66.74
2022-09-04T13:02:52.363Z,66.67
2022-09-04T13:05:25.443Z,66.80
2022-09-04T13:08:19.660Z,67.28
2022-09-04T13:11:15.592Z,67.82
2022-09-04T13:13:46.185Z,67.77
2022-09-04T13:16:27.657Z,67.27
2022-09-04T13:19:31.434Z,67.61
2022-09-04T13:22:41.473Z,67.09
2022-09-04T13:25:27.522Z,67.60
2022-09-04T13:28:03.289Z,67.34
2022-09-04T13:30:55.483Z,67.43
2022-09-04T13:33:42.330Z,67.28
2022-09-04T13:36:29.043Z,67.25
2022-09-04T13:39:22.706Z,67.51
2022-09-04T13:42:11.050Z,66.94
2022-09-04T13:45:06.707Z,67.11
2022-09-04T13:47:39.607Z,66.23
2022-09-04T13:50:17.442Z,66.49
2022-09-04T13:52:48.077Z,66.27
2022-09-04T13:55:29.490Z,66.26
2022-09-04T13:58:47.784Z,65.86
2022-09-04T14:01:30.005Z,65.95
2022-09-04T14:04:02.719Z,64.97
2022-09-04T14:06:44.701Z,64.94
2022-09-04T14:09:12.321Z,64.74
2022-09-04T14:11:39.577Z,64.73
2022-09-04T14:14:15.343Z,64.41
2022-09-04T14:16:44.508Z,64.74
2022-09-04T14:19:27.546Z,64.35
2022-09-04T14:22:33.339Z,64.84
2022-09-04T14:27:59.112Z,64.49
2022-09-04T14:30:29.883Z,64.30
2022-09-04T14:32:06.694Z,65.08
2022-09-04T14:33:29.023Z,64.64
2022-09-04T14:36:02.991Z,64.50
2022-09-04T14:38:54.579Z,64.31
2022-09-04T14:41:44.702Z,63.56
2022-09-04T14:44:22.668Z,63.46
2022-09-04T14:47:02.401Z,63.56
2022-09-04T14:49:47.499Z,63.47
2022-09-04T14:52:22.846Z,63.27
2022-09-04T14:55:02.344Z,62.75
2022-09-04T14:57:51.307Z,62.56
2022-09-04T15:00:20.339Z,61.53
2022-09-04T15:03:18.127Z,61.00
2022-09-04T15:05:53.632Z,61.54
2022-09-04T15:08:40.191Z,62.71
2022-09-04T15:11:37.849Z,61.81
2022-09-04T15:14:26.454Z,60.75
2022-09-04T15:17:00.284Z,61.09
2022-09-04T15:20:05.961Z,61.37
2022-09-04T15:22:47.331Z,62.90
2022-09-04T15:25:56.883Z,61.77
2022-09-04T15:28:27.996Z,61.84
2022-09-04T15:31:15.506Z,61.49
2022-09-04T15:33:46.032Z,61.34
2022-09-04T15:36:30.797Z,61.83
2022-09-04T15:39:02.533Z,61.28
2022-09-04T15:41:53.903Z,61.40
2022-09-04T15:44:30.597Z,61.17
2022-09-04T15:47:00.811Z,60.48
2022-09-04T15:49:49.008Z,60.65
2022-09-04T15:52:41.696Z,61.31
2022-09-04T15:55:31.836Z,60.96
2022-09-04T15:58:48.076Z,60.80
2022-09-04T16:01:47.621Z,60.83
2022-09-04T16:04:26.460Z,61.36
2022-09-04T16:07:20.667Z,62.56
2022-09-04T16:09:57.072Z,62.33
2022-09-04T16:12:49.521Z,61.73
2022-09-04T16:15:22.801Z,61.90
2022-09-04T16:17:56.413Z,61.50
2022-09-04T16:21:07.648Z,61.45
2022-09-04T16:23:59.566Z,62.34
2022-09-04T16:26:31.548Z,62.16
2022-09-04T16:29:26.345Z,62.18
2022-09-04T16:31:57.267Z,62.24
2022-09-04T16:34:37.129Z,62.12
2022-09-04T16:37:45.627Z,61.95
2022-09-04T16:40:18.873Z,62.35
2022-09-04T16:42:57.761Z,62.12
2022-09-04T16:45:30.936Z,61.37
2022-09-04T16:48:33.467Z,61.45
2022-09-04T16:51:25.928Z,62.37
2022-09-04T16:54:04.395Z,62.49
2022-09-04T16:56:43.820Z,62.81
2022-09-04T16:59:27.750Z,63.32
2022-09-04T17:02:32.260Z,62.33
2022-09-04T17:05:40.441Z,62.47
2022-09-04T17:08:29.321Z,62.19
2022-09-04T17:10:59.747Z,62.00
2022-09-04T17:13:53.036Z,62.64
2022-09-04T17:16:25.420Z,62.90
2022-09-04T17:18:55.976Z,63.23
2022-09-04T17:26:28.084Z,65.07
2022-09-04T17:29:11.308Z,65.51
2022-09-04T17:29:18.360Z,63.94
2022-09-04T17:30:43.682Z,63.24
2022-09-04T17:40:41.465Z,63.27
2022-09-04T17:40:41.635Z,63.76
2022-09-04T17:40:49.127Z,63.46
2022-09-04T17:43:24.484Z,61.98
2022-09-04T17:46:12.947Z,62.27
2022-09-04T17:48:45.264Z,62.10
2022-09-04T17:51:29.431Z,62.39
2022-09-04T17:54:02.338Z,62.28
2022-09-04T17:56:40.928Z,62.00
2022-09-04T17:59:36.896Z,61.58
2022-09-04T18:02:20.208Z,61.58
2022-09-04T18:04:57.502Z,62.26
2022-09-04T18:08:09.977Z,62.55
2022-09-04T18:10:31.439Z,62.08
2022-09-04T18:13:38.065Z,61.89
2022-09-04T18:16:11.720Z,61.39
2022-09-04T18:18:51.018Z,60.74
2022-09-04T18:21:53.921Z,61.94
2022-09-04T18:24:38.690Z,61.23
2022-09-04T18:27:21.295Z,61.90
2022-09-04T18:33:14.128Z,62.46
2022-09-04T18:37:20.965Z,61.20
2022-09-04T18:37:21.502Z,61.54
2022-09-04T18:39:33.958Z,61.94
2022-09-04T18:50:20.172Z,61.99
2022-09-04T18:50:33.993Z,62.79
2022-09-04T18:50:52.395Z,62.47
2022-09-04T18:54:00.022Z,63.05
2022-09-04T18:56:36.193Z,62.71
2022-09-04T18:59:22.618Z,63.15
2022-09-04T19:02:29.319Z,62.75
2022-09-04T19:05:14.628Z,63.47
2022-09-04T19:07:44.607Z,63.96
2022-09-04T19:10:23.317Z,63.76
2022-09-04T19:13:02.046Z,63.91
2022-09-04T19:15:50.161Z,64.40
2022-09-04T19:18:27.254Z,63.62
2022-09-04T19:21:15.699Z,64.44
2022-09-04T19:23:45.841Z,64.58
2022-09-04T19:26:20.353Z,64.43
2022-09-04T19:28:54.148Z,64.96
2022-09-04T19:31:35.281Z,64.71
2022-09-04T19:34:40.683Z,64.08
2022-09-04T19:41:35.476Z,64.41
2022-09-04T19:45:56.493Z,64.89
2022-09-04T19:46:17.047Z,65.13
2022-09-04T19:47:36.771Z,64.48
2022-09-04T19:53:19.979Z,64.12
2022-09-04T19:53:41.122Z,64.27
2022-09-04T19:56:28.200Z,63.96
2022-09-04T19:59:35.935Z,63.57
2022-09-04T20:02:38.580Z,63.88
2022-09-04T20:05:24.933Z,64.78
2022-09-04T20:08:20.149Z,64.94
2022-09-04T20:11:35.944Z,63.87
2022-09-04T20:14:21.987Z,63.10
2022-09-04T20:17:24.462Z,63.18
2022-09-04T20:20:03.828Z,63.22
2022-09-04T20:22:57.357Z,63.10
2022-09-04T20:25:53.889Z,63.10
2022-09-04T20:28:36.578Z,63.25
2022-09-04T20:31:35.321Z,63.79
2022-09-04T20:34:16.749Z,63.03
2022-09-04T20:36:49.433Z,63.41
2022-09-04T20:39:36.282Z,62.68
2022-09-04T20:42:12.967Z,62.83
2022-09-04T20:45:52.712Z,62.72
2022-09-04T20:52:41.853Z,62.14
2022-09-04T20:53:05.873Z,62.41
2022-09-04T20:53:45.985Z,62.06
2022-09-04T20:57:00.973Z,62.12
2022-09-04T21:03:12.464Z,62.06
2022-09-04T21:03:17.386Z,62.22
2022-09-04T21:05:42.638Z,61.32
2022-09-04T21:08:27.206Z,60.43
2022-09-04T21:11:41.704Z,61.22
2022-09-04T21:14:31.993Z,60.63
2022-09-04T21:17:35.806Z,59.64
2022-09-04T21:20:19.115Z,60.17
2022-09-04T21:23:07.788Z,59.83
2022-09-04T21:26:08.615Z,59.57
2022-09-04T21:29:10.713Z,59.32
2022-09-04T21:32:10.008Z,60.53
2022-09-04T21:34:44.022Z,59.00
2022-09-04T21:37:28.429Z,58.48
2022-09-04T21:40:31.033Z,58.25
2022-09-04T21:43:36.357Z,58.66
2022-09-04T21:46:47.289Z,58.48
2022-09-04T21:49:32.800Z,58.57
2022-09-04T21:52:30.463Z,59.14
2022-09-04T22:01:02.033Z,59.55
2022-09-04T22:02:32.091Z,59.23
2022-09-04T22:02:40.141Z,59.31
2022-09-04T22:04:39.219Z,59.33
2022-09-04T22:11:31.384Z,59.40
2022-09-04T22:13:39.969Z,59.72
2022-09-04T22:13:48.211Z,59.58
2022-09-04T22:16:29.452Z,59.25
2022-09-04T22:19:21.163Z,59.09
2022-09-04T22:22:25.598Z,58.81
2022-09-04T22:25:16.119Z,59.62
2022-09-04T22:28:16.018Z,59.00
2022-09-04T22:31:17.005Z,58.48
2022-09-04T22:34:15.897Z,59.10
2022-09-04T22:37:05.091Z,58.38
2022-09-04T22:39:50.680Z,59.08
2022-09-04T22:42:52.933Z,59.18
2022-09-04T22:45:53.375Z,59.49
2022-09-04T22:48:47.225Z,59.30
2022-09-04T22:51:55.443Z,59.38
2022-09-04T22:54:38.024Z,59.76
2022-09-04T22:57:12.697Z,59.63
2022-09-04T22:59:42.344Z,60.10
2022-09-04T23:02:20.250Z,59.89
2022-09-04T23:05:20.515Z,59.93
2022-09-04T23:13:42.133Z,59.72
2022-09-04T23:13:50.172Z,59.78
2022-09-04T23:14:06.389Z,60.18
2022-09-04T23:16:46.705Z,60.32
2022-09-04T23:22:46.108Z,60.47
2022-09-04T23:26:38.383Z,60.46
2022-09-04T23:26:47.563Z,60.59
2022-09-04T23:29:22.313Z,61.06
2022-09-04T23:32:09.927Z,61.22
2022-09-04T23:35:13.697Z,61.37
2022-09-04T23:38:00.907Z,61.94
2022-09-04T23:40:43.081Z,61.70
2022-09-04T23:43:38.094Z,62.06
2022-09-04T23:46:40.929Z,62.86
2022-09-04T23:49:38.174Z,62.59
2022-09-04T23:53:06.705Z,62.86
2022-09-04T23:55:49.767Z,63.17
2022-09-04T23:58:54.136Z,63.00
